sensor_id;sensor_type;location;lat;lon;timestamp;P1;durP1;ratioP1;P2;durP2;ratioP2
21432;SDS011;18592;49.708;10.900;2022-11-11T00:01:43;7.22;;;5.78;;
21432;SDS011;18592;49.708;10.900;2022-11-11T00:04:03;6.05;;;5.15;;
21432;SDS011;18592;49.708;10.900;2022-11-11T00:06:23;6.55;;;5.40;;
21432;SDS011;18592;49.708;10.900;2022-11-11T00:08:45;5.78;;;5.10;;
21432;SDS011;18592;49.708;10.900;2022-11-11T00:11:10;6.55;;;4.90;;
21432;SDS011;18592;49.708;10.900;2022-11-11T00:13:32;6.10;;;4.80;;
21432;SDS011;18592;49.708;10.900;2022-11-11T00:16:07;6.07;;;5.20;;
21432;SDS011;18592;49.708;10.900;2022-11-11T00:18:31;7.40;;;4.70;;
21432;SDS011;18592;49.708;10.900;2022-11-11T00:21:13;7.43;;;5.10;;
21432;SDS011;18592;49.708;10.900;2022-11-11T00:23:53;6.50;;;5.05;;
21432;SDS011;18592;49.708;10.900;2022-11-11T00:26:35;6.93;;;5.30;;
21432;SDS011;18592;49.708;10.900;2022-11-11T00:29:00;8.13;;;5.00;;
21432;SDS011;18592;49.708;10.900;2022-11-11T00:31:19;5.43;;;4.65;;
21432;SDS011;18592;49.708;10.900;2022-11-11T00:33:46;5.22;;;4.72;;
21432;SDS011;18592;49.708;10.900;2022-11-11T00:36:07;6.75;;;5.43;;
21432;SDS011;18592;49.708;10.900;2022-11-11T00:38:27;6.63;;;4.85;;
21432;SDS011;18592;49.708;10.900;2022-11-11T00:41:06;7.88;;;4.95;;
21432;SDS011;18592;49.708;10.900;2022-11-11T00:43:27;5.85;;;5.18;;
21432;SDS011;18592;49.708;10.900;2022-11-11T00:45:47;6.13;;;4.80;;
21432;SDS011;18592;49.708;10.900;2022-11-11T00:48:08;6.65;;;4.78;;
21432;SDS011;18592;49.708;10.900;2022-11-11T00:50:47;7.68;;;4.90;;
21432;SDS011;18592;49.708;10.900;2022-11-11T00:53:25;5.78;;;4.45;;
21432;SDS011;18592;49.708;10.900;2022-11-11T00:55:53;5.10;;;4.60;;
21432;SDS011;18592;49.708;10.900;2022-11-11T00:58:17;5.47;;;4.55;;
21432;SDS011;18592;49.708;10.900;2022-11-11T01:00:38;5.03;;;4.47;;
21432;SDS011;18592;49.708;10.900;2022-11-11T01:03:02;5.30;;;4.40;;
21432;SDS011;18592;49.708;10.900;2022-11-11T01:05:23;6.25;;;4.30;;
21432;SDS011;18592;49.708;10.900;2022-11-11T01:07:44;5.25;;;4.60;;
21432;SDS011;18592;49.708;10.900;2022-11-11T01:10:04;5.65;;;4.47;;
21432;SDS011;18592;49.708;10.900;2022-11-11T01:12:26;6.53;;;4.50;;
21432;SDS011;18592;49.708;10.900;2022-11-11T01:14:49;4.35;;;3.95;;
21432;SDS011;18592;49.708;10.900;2022-11-11T01:17:10;4.93;;;4.22;;
21432;SDS011;18592;49.708;10.900;2022-11-11T01:19:30;4.80;;;3.92;;
21432;SDS011;18592;49.708;10.900;2022-11-11T01:21:51;6.07;;;4.40;;
21432;SDS011;18592;49.708;10.900;2022-11-11T01:24:20;6.05;;;4.18;;
21432;SDS011;18592;49.708;10.900;2022-11-11T01:26:40;4.30;;;3.88;;
21432;SDS011;18592;49.708;10.900;2022-11-11T01:29:01;5.38;;;4.13;;
21432;SDS011;18592;49.708;10.900;2022-11-11T01:31:23;4.22;;;3.83;;
21432;SDS011;18592;49.708;10.900;2022-11-11T01:33:44;4.75;;;3.83;;
21432;SDS011;18592;49.708;10.900;2022-11-11T01:36:12;6.40;;;4.05;;
21432;SDS011;18592;49.708;10.900;2022-11-11T01:38:34;4.22;;;3.83;;
21432;SDS011;18592;49.708;10.900;2022-11-11T01:40:57;4.13;;;3.72;;
21432;SDS011;18592;49.708;10.900;2022-11-11T01:43:19;3.72;;;3.40;;
21432;SDS011;18592;49.708;10.900;2022-11-11T01:45:45;4.90;;;3.90;;
21432;SDS011;18592;49.708;10.900;2022-11-11T01:48:10;6.03;;;3.85;;
21432;SDS011;18592;49.708;10.900;2022-11-11T01:50:55;4.13;;;3.55;;
21432;SDS011;18592;49.708;10.900;2022-11-11T01:53:17;4.90;;;3.30;;
21432;SDS011;18592;49.708;10.900;2022-11-11T01:55:39;4.03;;;3.42;;
21432;SDS011;18592;49.708;10.900;2022-11-11T01:58:03;5.53;;;3.42;;
21432;SDS011;18592;49.708;10.900;2022-11-11T02:00:28;3.50;;;3.20;;
21432;SDS011;18592;49.708;10.900;2022-11-11T02:02:53;3.35;;;3.05;;
21432;SDS011;18592;49.708;10.900;2022-11-11T02:05:17;5.18;;;3.05;;
21432;SDS011;18592;49.708;10.900;2022-11-11T02:08:00;3.38;;;3.08;;
21432;SDS011;18592;49.708;10.900;2022-11-11T02:10:29;3.90;;;3.40;;
21432;SDS011;18592;49.708;10.900;2022-11-11T02:12:52;3.97;;;3.40;;
21432;SDS011;18592;49.708;10.900;2022-11-11T02:15:31;4.30;;;3.50;;
21432;SDS011;18592;49.708;10.900;2022-11-11T02:17:51;5.50;;;3.97;;
21432;SDS011;18592;49.708;10.900;2022-11-11T02:20:23;3.45;;;3.15;;
21432;SDS011;18592;49.708;10.900;2022-11-11T02:22:47;4.43;;;3.58;;
21432;SDS011;18592;49.708;10.900;2022-11-11T02:25:13;4.13;;;3.45;;
21432;SDS011;18592;49.708;10.900;2022-11-11T02:27:42;4.43;;;3.72;;
21432;SDS011;18592;49.708;10.900;2022-11-11T02:30:08;4.38;;;3.50;;
21432;SDS011;18592;49.708;10.900;2022-11-11T02:32:37;4.28;;;3.88;;
21432;SDS011;18592;49.708;10.900;2022-11-11T02:34:57;3.83;;;3.40;;
21432;SDS011;18592;49.708;10.900;2022-11-11T02:37:19;3.83;;;3.38;;
21432;SDS011;18592;49.708;10.900;2022-11-11T02:39:43;4.50;;;3.92;;
21432;SDS011;18592;49.708;10.900;2022-11-11T02:42:22;4.90;;;3.58;;
21432;SDS011;18592;49.708;10.900;2022-11-11T02:44:44;3.83;;;3.53;;
21432;SDS011;18592;49.708;10.900;2022-11-11T02:47:04;3.85;;;3.40;;
21432;SDS011;18592;49.708;10.900;2022-11-11T02:49:25;5.57;;;4.22;;
21432;SDS011;18592;49.708;10.900;2022-11-11T02:51:45;5.95;;;5.00;;
21432;SDS011;18592;49.708;10.900;2022-11-11T02:54:08;9.57;;;5.32;;
21432;SDS011;18592;49.708;10.900;2022-11-11T02:56:28;6.13;;;4.95;;
21432;SDS011;18592;49.708;10.900;2022-11-11T02:59:08;7.05;;;4.65;;
21432;SDS011;18592;49.708;10.900;2022-11-11T03:01:29;5.38;;;4.32;;
21432;SDS011;18592;49.708;10.900;2022-11-11T03:03:51;6.00;;;3.97;;
21432;SDS011;18592;49.708;10.900;2022-11-11T03:06:12;5.57;;;4.00;;
21432;SDS011;18592;49.708;10.900;2022-11-11T03:08:32;4.70;;;3.50;;
21432;SDS011;18592;49.708;10.900;2022-11-11T03:10:52;4.53;;;3.40;;
21432;SDS011;18592;49.708;10.900;2022-11-11T03:13:13;3.70;;;3.30;;
21432;SDS011;18592;49.708;10.900;2022-11-11T03:15:33;4.55;;;3.50;;
21432;SDS011;18592;49.708;10.900;2022-11-11T03:17:54;3.80;;;3.33;;
21432;SDS011;18592;49.708;10.900;2022-11-11T03:20:15;4.50;;;3.70;;
21432;SDS011;18592;49.708;10.900;2022-11-11T03:25:22;4.10;;;3.67;;
21432;SDS011;18592;49.708;10.900;2022-11-11T03:27:58;6.47;;;3.78;;
21432;SDS011;18592;49.708;10.900;2022-11-11T03:30:18;3.50;;;3.20;;
21432;SDS011;18592;49.708;10.900;2022-11-11T03:32:38;4.28;;;3.58;;
21432;SDS011;18592;49.708;10.900;2022-11-11T03:34:59;3.72;;;3.33;;
21432;SDS011;18592;49.708;10.900;2022-11-11T03:37:19;3.72;;;3.35;;
21432;SDS011;18592;49.708;10.900;2022-11-11T03:40:01;4.10;;;3.28;;
21432;SDS011;18592;49.708;10.900;2022-11-11T03:42:21;4.35;;;3.38;;
21432;SDS011;18592;49.708;10.900;2022-11-11T03:44:42;3.63;;;2.83;;
21432;SDS011;18592;49.708;10.900;2022-11-11T03:47:02;3.30;;;2.83;;
21432;SDS011;18592;49.708;10.900;2022-11-11T03:49:22;3.65;;;3.35;;
21432;SDS011;18592;49.708;10.900;2022-11-11T03:51:42;4.03;;;3.50;;
21432;SDS011;18592;49.708;10.900;2022-11-11T03:54:07;3.78;;;3.08;;
21432;SDS011;18592;49.708;10.900;2022-11-11T03:56:27;4.35;;;3.45;;
21432;SDS011;18592;49.708;10.900;2022-11-11T03:58:53;3.90;;;3.50;;
21432;SDS011;18592;49.708;10.900;2022-11-11T04:01:14;3.75;;;3.42;;
21432;SDS011;18592;49.708;10.900;2022-11-11T04:03:53;4.18;;;3.33;;
21432;SDS011;18592;49.708;10.900;2022-11-11T04:06:32;4.78;;;3.30;;
21432;SDS011;18592;49.708;10.900;2022-11-11T04:09:11;3.28;;;2.97;;
21432;SDS011;18592;49.708;10.900;2022-11-11T04:11:50;3.70;;;3.03;;
21432;SDS011;18592;49.708;10.900;2022-11-11T04:14:11;3.45;;;3.15;;
21432;SDS011;18592;49.708;10.900;2022-11-11T04:16:51;4.22;;;3.10;;
21432;SDS011;18592;49.708;10.900;2022-11-11T04:19:14;3.30;;;3.00;;
21432;SDS011;18592;49.708;10.900;2022-11-11T04:21:56;3.10;;;2.80;;
21432;SDS011;18592;49.708;10.900;2022-11-11T04:24:17;4.32;;;3.65;;
21432;SDS011;18592;49.708;10.900;2022-11-11T04:26:58;3.35;;;3.05;;
21432;SDS011;18592;49.708;10.900;2022-11-11T04:29:20;3.67;;;3.38;;
21432;SDS011;18592;49.708;10.900;2022-11-11T04:31:49;3.20;;;2.92;;
21432;SDS011;18592;49.708;10.900;2022-11-11T04:34:28;3.78;;;3.15;;
21432;SDS011;18592;49.708;10.900;2022-11-11T04:36:48;3.20;;;2.90;;
21432;SDS011;18592;49.708;10.900;2022-11-11T04:39:08;2.90;;;2.70;;
21432;SDS011;18592;49.708;10.900;2022-11-11T04:41:47;3.30;;;3.00;;
21432;SDS011;18592;49.708;10.900;2022-11-11T04:44:27;3.63;;;3.33;;
21432;SDS011;18592;49.708;10.900;2022-11-11T04:47:07;3.95;;;3.63;;
21432;SDS011;18592;49.708;10.900;2022-11-11T04:49:31;3.85;;;3.55;;
21432;SDS011;18592;49.708;10.900;2022-11-11T04:51:55;4.22;;;3.80;;
21432;SDS011;18592;49.708;10.900;2022-11-11T04:54:34;4.38;;;3.97;;
21432;SDS011;18592;49.708;10.900;2022-11-11T04:57:14;4.68;;;4.10;;
21432;SDS011;18592;49.708;10.900;2022-11-11T04:59:35;4.60;;;4.15;;
21432;SDS011;18592;49.708;10.900;2022-11-11T05:01:55;3.90;;;3.50;;
21432;SDS011;18592;49.708;10.900;2022-11-11T05:04:35;4.88;;;4.07;;
21432;SDS011;18592;49.708;10.900;2022-11-11T05:06:55;4.00;;;3.60;;
21432;SDS011;18592;49.708;10.900;2022-11-11T05:09:34;4.10;;;3.63;;
21432;SDS011;18592;49.708;10.900;2022-11-11T05:11:54;4.40;;;3.75;;
21432;SDS011;18592;49.708;10.900;2022-11-11T05:14:14;4.22;;;3.83;;
21432;SDS011;18592;49.708;10.900;2022-11-11T05:16:57;4.20;;;3.90;;
21432;SDS011;18592;49.708;10.900;2022-11-11T05:19:37;4.68;;;3.80;;
21432;SDS011;18592;49.708;10.900;2022-11-11T05:22:34;5.22;;;4.30;;
21432;SDS011;18592;49.708;10.900;2022-11-11T05:24:57;5.03;;;3.97;;
21432;SDS011;18592;49.708;10.900;2022-11-11T05:27:37;5.03;;;4.03;;
21432;SDS011;18592;49.708;10.900;2022-11-11T05:29:57;6.32;;;3.85;;
21432;SDS011;18592;49.708;10.900;2022-11-11T05:32:18;5.38;;;4.07;;
21432;SDS011;18592;49.708;10.900;2022-11-11T05:34:40;5.65;;;4.10;;
21432;SDS011;18592;49.708;10.900;2022-11-11T05:37:00;5.07;;;4.10;;
21432;SDS011;18592;49.708;10.900;2022-11-11T05:39:27;4.60;;;4.13;;
21432;SDS011;18592;49.708;10.900;2022-11-11T05:41:48;6.40;;;4.65;;
21432;SDS011;18592;49.708;10.900;2022-11-11T05:44:08;10.18;;;5.22;;
21432;SDS011;18592;49.708;10.900;2022-11-11T05:46:29;5.55;;;4.68;;
21432;SDS011;18592;49.708;10.900;2022-11-11T05:48:52;8.25;;;4.72;;
21432;SDS011;18592;49.708;10.900;2022-11-11T05:51:34;6.47;;;4.00;;
21432;SDS011;18592;49.708;10.900;2022-11-11T05:53:58;8.02;;;4.68;;
21432;SDS011;18592;49.708;10.900;2022-11-11T05:56:18;5.38;;;4.07;;
21432;SDS011;18592;49.708;10.900;2022-11-11T05:58:38;4.95;;;4.32;;
21432;SDS011;18592;49.708;10.900;2022-11-11T06:00:59;4.80;;;4.03;;
21432;SDS011;18592;49.708;10.900;2022-11-11T06:03:19;7.63;;;3.95;;
21432;SDS011;18592;49.708;10.900;2022-11-11T06:05:40;4.32;;;3.90;;
21432;SDS011;18592;49.708;10.900;2022-11-11T06:08:01;4.57;;;3.85;;
21432;SDS011;18592;49.708;10.900;2022-11-11T06:10:23;6.60;;;3.85;;
21432;SDS011;18592;49.708;10.900;2022-11-11T06:12:50;4.82;;;3.95;;
21432;SDS011;18592;49.708;10.900;2022-11-11T06:15:38;8.05;;;4.57;;
21432;SDS011;18592;49.708;10.900;2022-11-11T06:18:00;6.55;;;5.00;;
21432;SDS011;18592;49.708;10.900;2022-11-11T06:20:21;6.50;;;4.90;;
21432;SDS011;18592;49.708;10.900;2022-11-11T06:22:41;7.55;;;5.13;;
21432;SDS011;18592;49.708;10.900;2022-11-11T06:25:15;9.00;;;6.10;;
21432;SDS011;18592;49.708;10.900;2022-11-11T06:27:58;8.23;;;6.05;;
21432;SDS011;18592;49.708;10.900;2022-11-11T06:30:18;7.28;;;6.10;;
21432;SDS011;18592;49.708;10.900;2022-11-11T06:33:01;9.70;;;6.15;;
21432;SDS011;18592;49.708;10.900;2022-11-11T06:35:23;10.27;;;5.68;;
21432;SDS011;18592;49.708;10.900;2022-11-11T06:37:43;7.72;;;6.25;;
21432;SDS011;18592;49.708;10.900;2022-11-11T06:40:04;6.57;;;5.38;;
21432;SDS011;18592;49.708;10.900;2022-11-11T06:42:24;6.35;;;5.50;;
21432;SDS011;18592;49.708;10.900;2022-11-11T06:44:54;6.72;;;4.80;;
21432;SDS011;18592;49.708;10.900;2022-11-11T06:47:15;5.22;;;4.65;;
21432;SDS011;18592;49.708;10.900;2022-11-11T06:49:35;5.45;;;4.60;;
21432;SDS011;18592;49.708;10.900;2022-11-11T06:51:55;6.25;;;4.63;;
21432;SDS011;18592;49.708;10.900;2022-11-11T06:54:15;7.00;;;5.28;;
21432;SDS011;18592;49.708;10.900;2022-11-11T06:56:42;8.30;;;6.00;;
21432;SDS011;18592;49.708;10.900;2022-11-11T06:59:02;9.88;;;7.93;;
21432;SDS011;18592;49.708;10.900;2022-11-11T07:01:24;14.45;;;9.27;;
21432;SDS011;18592;49.708;10.900;2022-11-11T07:03:45;12.80;;;10.25;;
21432;SDS011;18592;49.708;10.900;2022-11-11T07:06:05;19.48;;;11.32;;
21432;SDS011;18592;49.708;10.900;2022-11-11T07:08:28;19.48;;;11.45;;
21432;SDS011;18592;49.708;10.900;2022-11-11T07:10:48;14.52;;;10.57;;
21432;SDS011;18592;49.708;10.900;2022-11-11T07:13:09;14.75;;;11.48;;
21432;SDS011;18592;49.708;10.900;2022-11-11T07:15:32;17.05;;;11.75;;
21432;SDS011;18592;49.708;10.900;2022-11-11T07:17:53;17.70;;;12.45;;
21432;SDS011;18592;49.708;10.900;2022-11-11T07:20:13;19.05;;;13.05;;
21432;SDS011;18592;49.708;10.900;2022-11-11T07:22:35;21.35;;;14.65;;
21432;SDS011;18592;49.708;10.900;2022-11-11T07:24:57;26.50;;;16.65;;
21432;SDS011;18592;49.708;10.900;2022-11-11T07:27:17;26.92;;;17.88;;
21432;SDS011;18592;49.708;10.900;2022-11-11T07:29:38;30.55;;;18.88;;
21432;SDS011;18592;49.708;10.900;2022-11-11T07:31:58;25.88;;;17.45;;
21432;SDS011;18592;49.708;10.900;2022-11-11T07:34:19;24.13;;;15.68;;
21432;SDS011;18592;49.708;10.900;2022-11-11T07:36:42;23.27;;;14.00;;
21432;SDS011;18592;49.708;10.900;2022-11-11T07:39:03;20.58;;;12.70;;
21432;SDS011;18592;49.708;10.900;2022-11-11T07:41:27;16.35;;;10.65;;
21432;SDS011;18592;49.708;10.900;2022-11-11T07:43:48;14.57;;;9.93;;
21432;SDS011;18592;49.708;10.900;2022-11-11T07:46:08;14.50;;;9.55;;
21432;SDS011;18592;49.708;10.900;2022-11-11T07:48:28;13.38;;;8.63;;
21432;SDS011;18592;49.708;10.900;2022-11-11T07:50:50;11.00;;;8.10;;
21432;SDS011;18592;49.708;10.900;2022-11-11T07:53:11;11.88;;;7.57;;
21432;SDS011;18592;49.708;10.900;2022-11-11T07:55:31;11.30;;;6.65;;
21432;SDS011;18592;49.708;10.900;2022-11-11T07:57:51;11.05;;;7.57;;
21432;SDS011;18592;49.708;10.900;2022-11-11T08:00:12;9.52;;;7.00;;
21432;SDS011;18592;49.708;10.900;2022-11-11T08:02:33;10.43;;;6.63;;
21432;SDS011;18592;49.708;10.900;2022-11-11T08:04:53;11.13;;;7.60;;
21432;SDS011;18592;49.708;10.900;2022-11-11T08:07:14;9.23;;;7.30;;
21432;SDS011;18592;49.708;10.900;2022-11-11T08:09:41;11.40;;;7.82;;
21432;SDS011;18592;49.708;10.900;2022-11-11T08:12:02;10.95;;;7.38;;
21432;SDS011;18592;49.708;10.900;2022-11-11T08:14:41;10.77;;;7.40;;
21432;SDS011;18592;49.708;10.900;2022-11-11T08:17:03;8.85;;;6.82;;
21432;SDS011;18592;49.708;10.900;2022-11-11T08:19:23;8.93;;;6.97;;
21432;SDS011;18592;49.708;10.900;2022-11-11T08:21:44;9.38;;;6.35;;
21432;SDS011;18592;49.708;10.900;2022-11-11T08:24:04;9.15;;;6.43;;
21432;SDS011;18592;49.708;10.900;2022-11-11T08:26:51;8.68;;;6.70;;
21432;SDS011;18592;49.708;10.900;2022-11-11T08:29:13;8.73;;;6.45;;
21432;SDS011;18592;49.708;10.900;2022-11-11T08:31:33;7.75;;;6.22;;
21432;SDS011;18592;49.708;10.900;2022-11-11T08:33:54;9.45;;;6.78;;
21432;SDS011;18592;49.708;10.900;2022-11-11T08:36:15;10.40;;;7.00;;
21432;SDS011;18592;49.708;10.900;2022-11-11T08:38:48;12.30;;;8.63;;
21432;SDS011;18592;49.708;10.900;2022-11-11T08:41:11;12.93;;;8.40;;
21432;SDS011;18592;49.708;10.900;2022-11-11T08:43:32;11.80;;;9.48;;
21432;SDS011;18592;49.708;10.900;2022-11-11T08:45:57;14.95;;;10.00;;
21432;SDS011;18592;49.708;10.900;2022-11-11T08:48:19;16.27;;;9.60;;
21432;SDS011;18592;49.708;10.900;2022-11-11T08:50:41;13.63;;;9.13;;
21432;SDS011;18592;49.708;10.900;2022-11-11T08:53:02;13.85;;;9.35;;
21432;SDS011;18592;49.708;10.900;2022-11-11T08:55:26;11.52;;;8.45;;
21432;SDS011;18592;49.708;10.900;2022-11-11T08:57:46;13.23;;;8.45;;
21432;SDS011;18592;49.708;10.900;2022-11-11T09:00:07;11.40;;;8.38;;
21432;SDS011;18592;49.708;10.900;2022-11-11T09:02:28;12.43;;;7.40;;
21432;SDS011;18592;49.708;10.900;2022-11-11T09:04:48;10.63;;;7.13;;
21432;SDS011;18592;49.708;10.900;2022-11-11T09:07:14;9.05;;;6.95;;
21432;SDS011;18592;49.708;10.900;2022-11-11T09:09:43;9.02;;;6.40;;
21432;SDS011;18592;49.708;10.900;2022-11-11T09:12:03;11.13;;;6.32;;
21432;SDS011;18592;49.708;10.900;2022-11-11T09:14:24;10.63;;;6.40;;
21432;SDS011;18592;49.708;10.900;2022-11-11T09:16:44;7.82;;;5.75;;
21432;SDS011;18592;49.708;10.900;2022-11-11T09:19:07;7.70;;;5.80;;
21432;SDS011;18592;49.708;10.900;2022-11-11T09:21:29;7.63;;;5.88;;
21432;SDS011;18592;49.708;10.900;2022-11-11T09:23:50;7.60;;;5.88;;
21432;SDS011;18592;49.708;10.900;2022-11-11T09:26:12;9.27;;;5.70;;
21432;SDS011;18592;49.708;10.900;2022-11-11T09:28:33;8.52;;;6.03;;
21432;SDS011;18592;49.708;10.900;2022-11-11T09:31:01;8.68;;;5.97;;
21432;SDS011;18592;49.708;10.900;2022-11-11T09:33:42;8.07;;;5.43;;
21432;SDS011;18592;49.708;10.900;2022-11-11T09:36:02;8.32;;;5.63;;
21432;SDS011;18592;49.708;10.900;2022-11-11T09:38:23;7.30;;;5.60;;
21432;SDS011;18592;49.708;10.900;2022-11-11T09:40:48;8.38;;;5.68;;
21432;SDS011;18592;49.708;10.900;2022-11-11T09:43:23;8.80;;;5.13;;
21432;SDS011;18592;49.708;10.900;2022-11-11T09:45:59;6.63;;;4.72;;
21432;SDS011;18592;49.708;10.900;2022-11-11T09:51:22;5.38;;;4.00;;
21432;SDS011;18592;49.708;10.900;2022-11-11T09:53:54;7.75;;;4.47;;
21432;SDS011;18592;49.708;10.900;2022-11-11T09:56:19;8.20;;;4.25;;
21432;SDS011;18592;49.708;10.900;2022-11-11T09:58:51;5.65;;;3.95;;
21432;SDS011;18592;49.708;10.900;2022-11-11T10:01:19;5.65;;;4.32;;
21432;SDS011;18592;49.708;10.900;2022-11-11T10:04:04;6.25;;;4.15;;
21432;SDS011;18592;49.708;10.900;2022-11-11T10:06:41;6.07;;;3.38;;
21432;SDS011;18592;49.708;10.900;2022-11-11T10:09:06;6.43;;;3.55;;
21432;SDS011;18592;49.708;10.900;2022-11-11T10:11:42;4.30;;;3.80;;
21432;SDS011;18592;49.708;10.900;2022-11-11T10:14:22;6.05;;;4.05;;
21432;SDS011;18592;49.708;10.900;2022-11-11T10:19:37;5.32;;;3.85;;
21432;SDS011;18592;49.708;10.900;2022-11-11T10:22:18;3.95;;;3.30;;
21432;SDS011;18592;49.708;10.900;2022-11-11T10:24:40;4.60;;;3.38;;
21432;SDS011;18592;49.708;10.900;2022-11-11T10:27:15;3.63;;;3.30;;
21432;SDS011;18592;49.708;10.900;2022-11-11T10:29:39;4.35;;;3.38;;
21432;SDS011;18592;49.708;10.900;2022-11-11T10:32:13;4.43;;;3.00;;
21432;SDS011;18592;49.708;10.900;2022-11-11T10:34:42;4.00;;;3.30;;
21432;SDS011;18592;49.708;10.900;2022-11-11T10:37:08;5.18;;;3.80;;
21432;SDS011;18592;49.708;10.900;2022-11-11T10:42:38;6.68;;;3.90;;
21432;SDS011;18592;49.708;10.900;2022-11-11T10:45:07;5.35;;;3.30;;
21432;SDS011;18592;49.708;10.900;2022-11-11T10:55:45;4.45;;;3.30;;
21432;SDS011;18592;49.708;10.900;2022-11-11T11:00:48;5.78;;;3.17;;
21432;SDS011;18592;49.708;10.900;2022-11-11T11:03:19;3.47;;;3.08;;
21432;SDS011;18592;49.708;10.900;2022-11-11T11:06:05;4.85;;;3.30;;
21432;SDS011;18592;49.708;10.900;2022-11-11T11:08:41;3.00;;;2.55;;
21432;SDS011;18592;49.708;10.900;2022-11-11T11:11:08;6.28;;;3.50;;
21432;SDS011;18592;49.708;10.900;2022-11-11T11:14:19;4.68;;;3.15;;
21432;SDS011;18592;49.708;10.900;2022-11-11T11:16:23;4.07;;;3.25;;
21432;SDS011;18592;49.708;10.900;2022-11-11T11:22:00;4.68;;;3.50;;
21432;SDS011;18592;49.708;10.900;2022-11-11T11:24:22;4.97;;;3.50;;
21432;SDS011;18592;49.708;10.900;2022-11-11T11:26:47;5.65;;;3.72;;
21432;SDS011;18592;49.708;10.900;2022-11-11T11:29:10;5.18;;;3.40;;
21432;SDS011;18592;49.708;10.900;2022-11-11T11:31:35;3.72;;;2.92;;
21432;SDS011;18592;49.708;10.900;2022-11-11T11:33:58;3.60;;;2.70;;
21432;SDS011;18592;49.708;10.900;2022-11-11T11:36:21;3.53;;;2.70;;
21432;SDS011;18592;49.708;10.900;2022-11-11T11:38:46;5.28;;;2.97;;
21432;SDS011;18592;49.708;10.900;2022-11-11T11:41:12;4.20;;;3.10;;
21432;SDS011;18592;49.708;10.900;2022-11-11T11:43:36;6.00;;;3.08;;
21432;SDS011;18592;49.708;10.900;2022-11-11T11:45:59;5.03;;;3.58;;
21432;SDS011;18592;49.708;10.900;2022-11-11T11:51:39;4.65;;;3.13;;
21432;SDS011;18592;49.708;10.900;2022-11-11T11:56:36;4.78;;;3.22;;
21432;SDS011;18592;49.708;10.900;2022-11-11T12:04:21;4.22;;;3.20;;
21432;SDS011;18592;49.708;10.900;2022-11-11T12:07:05;4.20;;;3.20;;
21432;SDS011;18592;49.708;10.900;2022-11-11T12:09:42;5.43;;;2.95;;
21432;SDS011;18592;49.708;10.900;2022-11-11T12:12:26;3.97;;;2.78;;
21432;SDS011;18592;49.708;10.900;2022-11-11T12:17:53;3.88;;;3.00;;
21432;SDS011;18592;49.708;10.900;2022-11-11T12:20:27;3.22;;;2.92;;
21432;SDS011;18592;49.708;10.900;2022-11-11T12:34:15;4.60;;;3.50;;
21432;SDS011;18592;49.708;10.900;2022-11-11T12:36:45;6.00;;;3.28;;
21432;SDS011;18592;49.708;10.900;2022-11-11T12:47:47;4.82;;;3.20;;
21432;SDS011;18592;49.708;10.900;2022-11-11T12:53:26;4.15;;;2.90;;
21432;SDS011;18592;49.708;10.900;2022-11-11T12:59:15;4.07;;;3.28;;
21432;SDS011;18592;49.708;10.900;2022-11-11T13:01:54;3.88;;;3.10;;
21432;SDS011;18592;49.708;10.900;2022-11-11T13:10:12;4.25;;;3.25;;
21432;SDS011;18592;49.708;10.900;2022-11-11T13:15:42;5.03;;;3.67;;
21432;SDS011;18592;49.708;10.900;2022-11-11T13:18:09;5.28;;;3.60;;
21432;SDS011;18592;49.708;10.900;2022-11-11T13:23:13;5.30;;;3.60;;
21432;SDS011;18592;49.708;10.900;2022-11-11T13:25:34;4.38;;;3.78;;
21432;SDS011;18592;49.708;10.900;2022-11-11T13:28:05;5.00;;;3.53;;
21432;SDS011;18592;49.708;10.900;2022-11-11T13:30:49;5.38;;;3.67;;
21432;SDS011;18592;49.708;10.900;2022-11-11T13:33:13;5.38;;;3.70;;
21432;SDS011;18592;49.708;10.900;2022-11-11T13:35:48;5.95;;;4.03;;
21432;SDS011;18592;49.708;10.900;2022-11-11T13:38:29;5.53;;;4.32;;
21432;SDS011;18592;49.708;10.900;2022-11-11T13:41:02;7.57;;;4.07;;
21432;SDS011;18592;49.708;10.900;2022-11-11T13:43:29;10.18;;;4.40;;
21432;SDS011;18592;49.708;10.900;2022-11-11T13:46:01;4.80;;;3.42;;
21432;SDS011;18592;49.708;10.900;2022-11-11T13:48:25;5.05;;;3.47;;
21432;SDS011;18592;49.708;10.900;2022-11-11T13:50:46;5.07;;;3.88;;
21432;SDS011;18592;49.708;10.900;2022-11-11T13:53:11;5.80;;;4.28;;
21432;SDS011;18592;49.708;10.900;2022-11-11T13:55:39;4.40;;;2.95;;
21432;SDS011;18592;49.708;10.900;2022-11-11T13:58:04;6.10;;;3.42;;
21432;SDS011;18592;49.708;10.900;2022-11-11T14:00:28;5.25;;;3.30;;
21432;SDS011;18592;49.708;10.900;2022-11-11T14:05:33;4.40;;;3.35;;
21432;SDS011;18592;49.708;10.900;2022-11-11T14:07:54;6.95;;;3.42;;
21432;SDS011;18592;49.708;10.900;2022-11-11T14:12:43;5.18;;;3.38;;
21432;SDS011;18592;49.708;10.900;2022-11-11T14:15:54;4.75;;;3.17;;
21432;SDS011;18592;49.708;10.900;2022-11-11T14:17:58;5.70;;;3.40;;
21432;SDS011;18592;49.708;10.900;2022-11-11T14:23:13;4.82;;;3.10;;
21432;SDS011;18592;49.708;10.900;2022-11-11T14:25:37;3.60;;;2.83;;
21432;SDS011;18592;49.708;10.900;2022-11-11T14:28:02;3.35;;;2.80;;
21432;SDS011;18592;49.708;10.900;2022-11-11T14:30:27;4.50;;;2.70;;
21432;SDS011;18592;49.708;10.900;2022-11-11T14:32:49;5.38;;;2.97;;
21432;SDS011;18592;49.708;10.900;2022-11-11T14:40:27;5.47;;;3.20;;
21432;SDS011;18592;49.708;10.900;2022-11-11T14:42:52;4.88;;;3.42;;
21432;SDS011;18592;49.708;10.900;2022-11-11T14:47:46;4.68;;;3.00;;
21432;SDS011;18592;49.708;10.900;2022-11-11T14:52:51;5.57;;;2.63;;
21432;SDS011;18592;49.708;10.900;2022-11-11T14:55:15;3.93;;;2.80;;
21432;SDS011;18592;49.708;10.900;2022-11-11T15:00:18;3.90;;;2.50;;
21432;SDS011;18592;49.708;10.900;2022-11-11T15:03:02;3.42;;;2.58;;
21432;SDS011;18592;49.708;10.900;2022-11-11T15:08:05;4.82;;;2.80;;
21432;SDS011;18592;49.708;10.900;2022-11-11T15:15:53;3.50;;;2.90;;
21432;SDS011;18592;49.708;10.900;2022-11-11T15:23:32;5.40;;;2.85;;
21432;SDS011;18592;49.708;10.900;2022-11-11T15:34:03;6.05;;;3.10;;
21432;SDS011;18592;49.708;10.900;2022-11-11T15:39:19;5.53;;;3.00;;
21432;SDS011;18592;49.708;10.900;2022-11-11T15:41:48;4.35;;;2.75;;
21432;SDS011;18592;49.708;10.900;2022-11-11T15:44:16;5.05;;;2.95;;
21432;SDS011;18592;49.708;10.900;2022-11-11T15:46:40;7.43;;;3.05;;
21432;SDS011;18592;49.708;10.900;2022-11-11T15:49:02;5.20;;;3.03;;
21432;SDS011;18592;49.708;10.900;2022-11-11T15:53:53;8.32;;;3.15;;
21432;SDS011;18592;49.708;10.900;2022-11-11T15:56:29;5.03;;;2.90;;
21432;SDS011;18592;49.708;10.900;2022-11-11T15:58:53;5.85;;;3.08;;
21432;SDS011;18592;49.708;10.900;2022-11-11T16:01:14;5.43;;;2.70;;
21432;SDS011;18592;49.708;10.900;2022-11-11T16:03:40;6.53;;;2.75;;
21432;SDS011;18592;49.708;10.900;2022-11-11T16:06:03;5.63;;;2.60;;
21432;SDS011;18592;49.708;10.900;2022-11-11T16:08:26;9.15;;;3.00;;
21432;SDS011;18592;49.708;10.900;2022-11-11T16:10:57;6.53;;;2.40;;
21432;SDS011;18592;49.708;10.900;2022-11-11T16:13:33;5.55;;;2.88;;
21432;SDS011;18592;49.708;10.900;2022-11-11T16:16:02;5.88;;;2.53;;
21432;SDS011;18592;49.708;10.900;2022-11-11T16:18:37;4.47;;;2.40;;
21432;SDS011;18592;49.708;10.900;2022-11-11T16:24:02;5.80;;;2.67;;
21432;SDS011;18592;49.708;10.900;2022-11-11T16:26:24;6.07;;;2.70;;
21432;SDS011;18592;49.708;10.900;2022-11-11T16:28:45;5.72;;;2.92;;
21432;SDS011;18592;49.708;10.900;2022-11-11T16:33:47;5.25;;;2.60;;
21432;SDS011;18592;49.708;10.900;2022-11-11T16:36:14;6.43;;;3.15;;